Air Navigation Services of Czech Republic
Airport: LKPR Updated:  15.10.2019 18:30:28  UTC
 METAR LKPR 15.10. 18:30 ...
METAR LKPR 151830Z VRB01KT CAVOK 10/09 Q1007 NOSIG RMK REG QNH 1005=
 TAF LKPR 15.10. 17:00 ...
TAF LKPR 151700Z 1518/1700 15006KT CAVOK      BECMG 1521/1600 3000 BR NSC      BECMG 1600/1603 24010KT 9999 SCT030      TEMPO 1603/1615 26012G24KT 7000 RA BKN025      BECMG 1616/1619 21008KT CAVOK=